sensor_id;sensor_type;location;lat;lon;timestamp;P1;durP1;ratioP1;P2;durP2;ratioP2
33094;SDS011;19459;53.044;8.910;2023-03-03T00:02:25;50.40;;;24.10;;
33094;SDS011;19459;53.044;8.910;2023-03-03T00:04:51;44.40;;;22.65;;
33094;SDS011;19459;53.044;8.910;2023-03-03T00:07:17;45.50;;;23.48;;
33094;SDS011;19459;53.044;8.910;2023-03-03T00:09:47;49.35;;;23.52;;
33094;SDS011;19459;53.044;8.910;2023-03-03T00:12:19;50.92;;;23.75;;
33094;SDS011;19459;53.044;8.910;2023-03-03T00:14:51;50.05;;;23.92;;
33094;SDS011;19459;53.044;8.910;2023-03-03T00:17:27;47.92;;;25.48;;
33094;SDS011;19459;53.044;8.910;2023-03-03T00:19:55;47.83;;;25.13;;
33094;SDS011;19459;53.044;8.910;2023-03-03T00:27:54;46.15;;;23.33;;
33094;SDS011;19459;53.044;8.910;2023-03-03T00:30:26;53.72;;;25.70;;
33094;SDS011;19459;53.044;8.910;2023-03-03T00:32:53;52.97;;;25.90;;
33094;SDS011;19459;53.044;8.910;2023-03-03T00:38:00;49.97;;;24.42;;
33094;SDS011;19459;53.044;8.910;2023-03-03T00:40:36;49.33;;;23.65;;
33094;SDS011;19459;53.044;8.910;2023-03-03T00:43:20;51.70;;;26.35;;
33094;SDS011;19459;53.044;8.910;2023-03-03T00:45:55;50.03;;;23.80;;
33094;SDS011;19459;53.044;8.910;2023-03-03T00:51:01;58.80;;;28.10;;
33094;SDS011;19459;53.044;8.910;2023-03-03T00:53:53;53.15;;;25.08;;
33094;SDS011;19459;53.044;8.910;2023-03-03T00:56:20;49.38;;;24.85;;
33094;SDS011;19459;53.044;8.910;2023-03-03T00:58:47;50.47;;;27.33;;
33094;SDS011;19459;53.044;8.910;2023-03-03T01:01:14;61.13;;;26.13;;
33094;SDS011;19459;53.044;8.910;2023-03-03T01:03:41;60.30;;;27.77;;
33094;SDS011;19459;53.044;8.910;2023-03-03T01:06:07;52.72;;;26.50;;
33094;SDS011;19459;53.044;8.910;2023-03-03T01:08:34;52.28;;;25.20;;
33094;SDS011;19459;53.044;8.910;2023-03-03T01:11:18;64.90;;;28.02;;
33094;SDS011;19459;53.044;8.910;2023-03-03T01:13:48;58.03;;;28.35;;
33094;SDS011;19459;53.044;8.910;2023-03-03T01:16:15;54.88;;;25.70;;
33094;SDS011;19459;53.044;8.910;2023-03-03T01:18:41;54.30;;;26.05;;
33094;SDS011;19459;53.044;8.910;2023-03-03T01:21:08;56.38;;;26.48;;
33094;SDS011;19459;53.044;8.910;2023-03-03T01:23:35;62.25;;;28.48;;
33094;SDS011;19459;53.044;8.910;2023-03-03T01:26:01;62.67;;;28.98;;
33094;SDS011;19459;53.044;8.910;2023-03-03T01:28:27;58.13;;;28.80;;
33094;SDS011;19459;53.044;8.910;2023-03-03T01:30:53;61.55;;;27.05;;
33094;SDS011;19459;53.044;8.910;2023-03-03T01:33:19;60.70;;;30.90;;
33094;SDS011;19459;53.044;8.910;2023-03-03T01:35:45;66.82;;;30.15;;
33094;SDS011;19459;53.044;8.910;2023-03-03T01:38:12;61.85;;;27.48;;
33094;SDS011;19459;53.044;8.910;2023-03-03T01:40:39;63.10;;;28.92;;
33094;SDS011;19459;53.044;8.910;2023-03-03T01:43:06;64.13;;;29.92;;
33094;SDS011;19459;53.044;8.910;2023-03-03T01:48:24;68.05;;;27.30;;
33094;SDS011;19459;53.044;8.910;2023-03-03T01:51:01;64.57;;;29.37;;
33094;SDS011;19459;53.044;8.910;2023-03-03T01:53:49;59.38;;;27.63;;
33094;SDS011;19459;53.044;8.910;2023-03-03T01:56:19;62.45;;;29.88;;
33094;SDS011;19459;53.044;8.910;2023-03-03T01:58:49;71.13;;;31.35;;
33094;SDS011;19459;53.044;8.910;2023-03-03T02:01:31;68.80;;;30.45;;
33094;SDS011;19459;53.044;8.910;2023-03-03T02:03:58;69.93;;;31.35;;
33094;SDS011;19459;53.044;8.910;2023-03-03T02:06:26;79.03;;;33.20;;
33094;SDS011;19459;53.044;8.910;2023-03-03T02:09:11;62.22;;;28.95;;
33094;SDS011;19459;53.044;8.910;2023-03-03T02:12:00;74.97;;;30.77;;
33094;SDS011;19459;53.044;8.910;2023-03-03T02:14:32;72.05;;;29.88;;
33094;SDS011;19459;53.044;8.910;2023-03-03T02:16:58;64.47;;;29.95;;
33094;SDS011;19459;53.044;8.910;2023-03-03T02:22:19;70.50;;;29.60;;
33094;SDS011;19459;53.044;8.910;2023-03-03T02:24:56;66.18;;;30.05;;
33094;SDS011;19459;53.044;8.910;2023-03-03T02:27:25;73.97;;;30.02;;
33094;SDS011;19459;53.044;8.910;2023-03-03T02:29:55;79.68;;;32.60;;
33094;SDS011;19459;53.044;8.910;2023-03-03T02:32:22;70.90;;;31.27;;
33094;SDS011;19459;53.044;8.910;2023-03-03T02:34:49;69.43;;;31.15;;
33094;SDS011;19459;53.044;8.910;2023-03-03T02:37:17;71.85;;;29.98;;
33094;SDS011;19459;53.044;8.910;2023-03-03T02:39:44;80.25;;;32.63;;
33094;SDS011;19459;53.044;8.910;2023-03-03T02:42:18;76.70;;;30.60;;
33094;SDS011;19459;53.044;8.910;2023-03-03T02:44:51;72.03;;;29.80;;
33094;SDS011;19459;53.044;8.910;2023-03-03T02:47:16;75.78;;;32.22;;
33094;SDS011;19459;53.044;8.910;2023-03-03T02:49:42;66.80;;;29.92;;
33094;SDS011;19459;53.044;8.910;2023-03-03T02:52:09;73.05;;;31.48;;
33094;SDS011;19459;53.044;8.910;2023-03-03T02:54:37;69.97;;;30.00;;
33094;SDS011;19459;53.044;8.910;2023-03-03T02:57:03;63.67;;;27.27;;
33094;SDS011;19459;53.044;8.910;2023-03-03T02:59:30;67.47;;;27.05;;
33094;SDS011;19459;53.044;8.910;2023-03-03T03:01:58;64.22;;;28.40;;
33094;SDS011;19459;53.044;8.910;2023-03-03T03:04:25;73.47;;;28.25;;
33094;SDS011;19459;53.044;8.910;2023-03-03T03:06:52;73.30;;;28.92;;
33094;SDS011;19459;53.044;8.910;2023-03-03T03:09:19;69.57;;;27.73;;
33094;SDS011;19459;53.044;8.910;2023-03-03T03:11:46;75.72;;;30.52;;
33094;SDS011;19459;53.044;8.910;2023-03-03T03:14:13;80.38;;;30.50;;
33094;SDS011;19459;53.044;8.910;2023-03-03T03:16:39;78.35;;;31.05;;
33094;SDS011;19459;53.044;8.910;2023-03-03T03:19:06;89.57;;;32.85;;
33094;SDS011;19459;53.044;8.910;2023-03-03T03:21:32;96.35;;;35.90;;
33094;SDS011;19459;53.044;8.910;2023-03-03T03:23:58;123.32;;;41.63;;
33094;SDS011;19459;53.044;8.910;2023-03-03T03:26:24;125.75;;;43.35;;
33094;SDS011;19459;53.044;8.910;2023-03-03T03:28:50;122.82;;;43.08;;
33094;SDS011;19459;53.044;8.910;2023-03-03T03:31:17;130.88;;;46.63;;
33094;SDS011;19459;53.044;8.910;2023-03-03T03:33:45;137.85;;;47.58;;
33094;SDS011;19459;53.044;8.910;2023-03-03T03:36:11;134.10;;;48.00;;
33094;SDS011;19459;53.044;8.910;2023-03-03T03:38:37;133.77;;;45.25;;
33094;SDS011;19459;53.044;8.910;2023-03-03T03:41:03;135.07;;;45.55;;
33094;SDS011;19459;53.044;8.910;2023-03-03T03:43:30;109.95;;;39.28;;
33094;SDS011;19459;53.044;8.910;2023-03-03T03:45:56;102.30;;;42.15;;
33094;SDS011;19459;53.044;8.910;2023-03-03T03:48:22;100.10;;;38.58;;
33094;SDS011;19459;53.044;8.910;2023-03-03T03:50:48;108.60;;;39.97;;
33094;SDS011;19459;53.044;8.910;2023-03-03T03:53:15;100.93;;;39.55;;
33094;SDS011;19459;53.044;8.910;2023-03-03T03:55:41;104.95;;;38.28;;
33094;SDS011;19459;53.044;8.910;2023-03-03T03:58:08;112.90;;;40.35;;
33094;SDS011;19459;53.044;8.910;2023-03-03T04:00:42;90.05;;;37.92;;
33094;SDS011;19459;53.044;8.910;2023-03-03T04:03:09;90.22;;;34.83;;
33094;SDS011;19459;53.044;8.910;2023-03-03T04:05:35;80.45;;;32.53;;
33094;SDS011;19459;53.044;8.910;2023-03-03T04:08:02;81.38;;;33.40;;
33094;SDS011;19459;53.044;8.910;2023-03-03T04:10:28;89.15;;;34.53;;
33094;SDS011;19459;53.044;8.910;2023-03-03T04:12:53;94.70;;;37.10;;
33094;SDS011;19459;53.044;8.910;2023-03-03T04:15:19;105.85;;;40.10;;
33094;SDS011;19459;53.044;8.910;2023-03-03T04:17:45;95.45;;;37.20;;
33094;SDS011;19459;53.044;8.910;2023-03-03T04:20:14;105.90;;;38.80;;
33094;SDS011;19459;53.044;8.910;2023-03-03T04:22:40;100.72;;;35.97;;
33094;SDS011;19459;53.044;8.910;2023-03-03T04:25:07;95.82;;;37.38;;
33094;SDS011;19459;53.044;8.910;2023-03-03T04:27:37;102.03;;;35.67;;
33094;SDS011;19459;53.044;8.910;2023-03-03T04:30:03;100.80;;;37.80;;
33094;SDS011;19459;53.044;8.910;2023-03-03T04:32:30;89.75;;;35.28;;
33094;SDS011;19459;53.044;8.910;2023-03-03T04:34:57;94.65;;;35.70;;
33094;SDS011;19459;53.044;8.910;2023-03-03T04:37:23;82.55;;;33.97;;
33094;SDS011;19459;53.044;8.910;2023-03-03T04:39:49;92.22;;;36.05;;
33094;SDS011;19459;53.044;8.910;2023-03-03T04:42:15;101.55;;;36.05;;
33094;SDS011;19459;53.044;8.910;2023-03-03T04:44:41;104.82;;;35.95;;
33094;SDS011;19459;53.044;8.910;2023-03-03T04:47:07;113.07;;;38.47;;
33094;SDS011;19459;53.044;8.910;2023-03-03T04:49:33;108.15;;;36.28;;
33094;SDS011;19459;53.044;8.910;2023-03-03T04:51:59;110.10;;;38.33;;
33094;SDS011;19459;53.044;8.910;2023-03-03T04:54:24;116.47;;;42.90;;
33094;SDS011;19459;53.044;8.910;2023-03-03T04:56:50;129.02;;;42.03;;
33094;SDS011;19459;53.044;8.910;2023-03-03T04:59:16;131.73;;;41.10;;
33094;SDS011;19459;53.044;8.910;2023-03-03T05:01:42;118.45;;;42.75;;
33094;SDS011;19459;53.044;8.910;2023-03-03T05:04:07;133.35;;;44.60;;
33094;SDS011;19459;53.044;8.910;2023-03-03T05:06:33;135.35;;;44.78;;
33094;SDS011;19459;53.044;8.910;2023-03-03T05:08:59;125.80;;;42.40;;
33094;SDS011;19459;53.044;8.910;2023-03-03T05:11:25;128.43;;;44.35;;
33094;SDS011;19459;53.044;8.910;2023-03-03T05:13:51;128.13;;;44.13;;
33094;SDS011;19459;53.044;8.910;2023-03-03T05:16:17;138.05;;;43.17;;
33094;SDS011;19459;53.044;8.910;2023-03-03T05:18:43;122.45;;;41.10;;
33094;SDS011;19459;53.044;8.910;2023-03-03T05:21:09;136.38;;;44.42;;
33094;SDS011;19459;53.044;8.910;2023-03-03T05:23:36;120.68;;;41.55;;
33094;SDS011;19459;53.044;8.910;2023-03-03T05:26:02;122.65;;;41.90;;
33094;SDS011;19459;53.044;8.910;2023-03-03T05:28:28;116.68;;;39.45;;
33094;SDS011;19459;53.044;8.910;2023-03-03T05:30:53;137.50;;;44.15;;
33094;SDS011;19459;53.044;8.910;2023-03-03T05:33:19;118.65;;;40.35;;
33094;SDS011;19459;53.044;8.910;2023-03-03T05:35:45;119.43;;;41.28;;
33094;SDS011;19459;53.044;8.910;2023-03-03T05:38:11;112.10;;;36.95;;
33094;SDS011;19459;53.044;8.910;2023-03-03T05:40:37;124.65;;;40.97;;
33094;SDS011;19459;53.044;8.910;2023-03-03T05:43:03;114.35;;;40.83;;
33094;SDS011;19459;53.044;8.910;2023-03-03T05:45:29;121.78;;;41.53;;
33094;SDS011;19459;53.044;8.910;2023-03-03T05:47:54;114.13;;;40.15;;
33094;SDS011;19459;53.044;8.910;2023-03-03T05:50:21;116.18;;;40.90;;
33094;SDS011;19459;53.044;8.910;2023-03-03T05:52:48;125.30;;;39.40;;
33094;SDS011;19459;53.044;8.910;2023-03-03T05:55:15;128.10;;;41.85;;
33094;SDS011;19459;53.044;8.910;2023-03-03T05:57:41;125.20;;;43.33;;
33094;SDS011;19459;53.044;8.910;2023-03-03T06:00:07;120.28;;;39.72;;
33094;SDS011;19459;53.044;8.910;2023-03-03T06:02:34;108.40;;;40.75;;
33094;SDS011;19459;53.044;8.910;2023-03-03T06:05:03;101.68;;;38.65;;
33094;SDS011;19459;53.044;8.910;2023-03-03T06:07:30;101.97;;;37.80;;
33094;SDS011;19459;53.044;8.910;2023-03-03T06:09:56;66.22;;;27.85;;
33094;SDS011;19459;53.044;8.910;2023-03-03T06:12:21;63.00;;;26.58;;
33094;SDS011;19459;53.044;8.910;2023-03-03T06:14:47;74.00;;;28.40;;
33094;SDS011;19459;53.044;8.910;2023-03-03T06:17:13;79.25;;;29.30;;
33094;SDS011;19459;53.044;8.910;2023-03-03T06:19:39;83.80;;;31.58;;
33094;SDS011;19459;53.044;8.910;2023-03-03T06:22:05;94.05;;;31.77;;
33094;SDS011;19459;53.044;8.910;2023-03-03T06:24:32;87.53;;;29.73;;
33094;SDS011;19459;53.044;8.910;2023-03-03T06:26:58;69.75;;;26.15;;
33094;SDS011;19459;53.044;8.910;2023-03-03T06:29:25;69.20;;;27.05;;
33094;SDS011;19459;53.044;8.910;2023-03-03T06:31:51;81.93;;;28.45;;
33094;SDS011;19459;53.044;8.910;2023-03-03T06:34:18;76.93;;;27.83;;
33094;SDS011;19459;53.044;8.910;2023-03-03T06:36:44;64.50;;;24.65;;
33094;SDS011;19459;53.044;8.910;2023-03-03T06:39:10;64.75;;;25.50;;
33094;SDS011;19459;53.044;8.910;2023-03-03T06:41:36;60.90;;;24.85;;
33094;SDS011;19459;53.044;8.910;2023-03-03T06:44:02;69.13;;;28.08;;
33094;SDS011;19459;53.044;8.910;2023-03-03T06:46:28;70.55;;;26.58;;
33094;SDS011;19459;53.044;8.910;2023-03-03T06:48:53;70.85;;;27.90;;
33094;SDS011;19459;53.044;8.910;2023-03-03T06:51:30;75.43;;;28.25;;
33094;SDS011;19459;53.044;8.910;2023-03-03T06:54:01;75.95;;;29.55;;
33094;SDS011;19459;53.044;8.910;2023-03-03T06:56:35;70.40;;;28.75;;
33094;SDS011;19459;53.044;8.910;2023-03-03T06:59:04;70.38;;;27.92;;
33094;SDS011;19459;53.044;8.910;2023-03-03T07:01:36;63.03;;;26.40;;
33094;SDS011;19459;53.044;8.910;2023-03-03T07:06:57;60.63;;;26.27;;
33094;SDS011;19459;53.044;8.910;2023-03-03T07:09:45;68.68;;;26.58;;
33094;SDS011;19459;53.044;8.910;2023-03-03T07:12:20;71.85;;;29.17;;
33094;SDS011;19459;53.044;8.910;2023-03-03T07:14:54;78.47;;;28.52;;
33094;SDS011;19459;53.044;8.910;2023-03-03T07:17:45;66.93;;;27.63;;
33094;SDS011;19459;53.044;8.910;2023-03-03T07:20:17;74.15;;;27.45;;
33094;SDS011;19459;53.044;8.910;2023-03-03T07:22:48;67.30;;;28.20;;
33094;SDS011;19459;53.044;8.910;2023-03-03T07:25:19;72.55;;;30.40;;
33094;SDS011;19459;53.044;8.910;2023-03-03T07:30:57;89.63;;;34.35;;
33094;SDS011;19459;53.044;8.910;2023-03-03T07:35:58;107.57;;;39.85;;
33094;SDS011;19459;53.044;8.910;2023-03-03T07:41:13;125.32;;;43.53;;
33094;SDS011;19459;53.044;8.910;2023-03-03T07:46:43;85.72;;;33.15;;
33094;SDS011;19459;53.044;8.910;2023-03-03T07:52:00;77.50;;;31.73;;
33094;SDS011;19459;53.044;8.910;2023-03-03T07:57:06;80.25;;;32.60;;
33094;SDS011;19459;53.044;8.910;2023-03-03T08:02:34;75.53;;;29.33;;
33094;SDS011;19459;53.044;8.910;2023-03-03T08:05:35;66.78;;;26.75;;
33094;SDS011;19459;53.044;8.910;2023-03-03T08:10:56;77.85;;;29.45;;
33094;SDS011;19459;53.044;8.910;2023-03-03T08:13:28;75.80;;;27.90;;
33094;SDS011;19459;53.044;8.910;2023-03-03T08:23:38;54.53;;;24.25;;
33094;SDS011;19459;53.044;8.910;2023-03-03T08:26:03;51.70;;;21.23;;
33094;SDS011;19459;53.044;8.910;2023-03-03T08:28:29;51.67;;;22.23;;
33094;SDS011;19459;53.044;8.910;2023-03-03T08:30:55;51.72;;;22.55;;
33094;SDS011;19459;53.044;8.910;2023-03-03T08:33:21;41.92;;;20.52;;
33094;SDS011;19459;53.044;8.910;2023-03-03T08:35:47;40.83;;;19.27;;
33094;SDS011;19459;53.044;8.910;2023-03-03T08:38:13;45.97;;;20.60;;
33094;SDS011;19459;53.044;8.910;2023-03-03T08:40:42;37.88;;;17.60;;
33094;SDS011;19459;53.044;8.910;2023-03-03T08:43:09;37.65;;;15.05;;
33094;SDS011;19459;53.044;8.910;2023-03-03T08:45:38;32.08;;;16.13;;
33094;SDS011;19459;53.044;8.910;2023-03-03T08:48:04;34.17;;;15.00;;
33094;SDS011;19459;53.044;8.910;2023-03-03T08:50:30;30.10;;;13.77;;
33094;SDS011;19459;53.044;8.910;2023-03-03T08:52:56;35.55;;;15.43;;
33094;SDS011;19459;53.044;8.910;2023-03-03T08:55:22;37.38;;;15.70;;
33094;SDS011;19459;53.044;8.910;2023-03-03T08:57:48;38.22;;;15.13;;
33094;SDS011;19459;53.044;8.910;2023-03-03T09:00:14;35.33;;;15.32;;
33094;SDS011;19459;53.044;8.910;2023-03-03T09:02:41;31.05;;;15.20;;
33094;SDS011;19459;53.044;8.910;2023-03-03T09:05:07;30.17;;;14.60;;
33094;SDS011;19459;53.044;8.910;2023-03-03T09:07:34;26.75;;;13.60;;
33094;SDS011;19459;53.044;8.910;2023-03-03T09:10:00;26.10;;;13.48;;
33094;SDS011;19459;53.044;8.910;2023-03-03T09:14:59;24.92;;;12.23;;
33094;SDS011;19459;53.044;8.910;2023-03-03T09:17:39;31.80;;;12.57;;
33094;SDS011;19459;53.044;8.910;2023-03-03T09:26:19;26.70;;;12.88;;
33094;SDS011;19459;53.044;8.910;2023-03-03T09:31:41;23.23;;;11.65;;
33094;SDS011;19459;53.044;8.910;2023-03-03T09:40:01;26.73;;;12.95;;
33094;SDS011;19459;53.044;8.910;2023-03-03T09:45:51;24.20;;;11.07;;
33094;SDS011;19459;53.044;8.910;2023-03-03T09:51:11;19.80;;;10.40;;
33094;SDS011;19459;53.044;8.910;2023-03-03T09:54:25;23.20;;;11.77;;
33094;SDS011;19459;53.044;8.910;2023-03-03T09:57:10;25.73;;;13.02;;
33094;SDS011;19459;53.044;8.910;2023-03-03T10:00:04;24.02;;;11.43;;
33094;SDS011;19459;53.044;8.910;2023-03-03T10:05:51;18.52;;;10.55;;
33094;SDS011;19459;53.044;8.910;2023-03-03T10:08:53;16.95;;;10.48;;
33094;SDS011;19459;53.044;8.910;2023-03-03T10:11:27;25.60;;;11.80;;
33094;SDS011;19459;53.044;8.910;2023-03-03T10:14:44;20.38;;;9.90;;
33094;SDS011;19459;53.044;8.910;2023-03-03T10:17:21;18.25;;;11.07;;
33094;SDS011;19459;53.044;8.910;2023-03-03T10:22:54;22.90;;;12.48;;
33094;SDS011;19459;53.044;8.910;2023-03-03T10:25:41;25.45;;;14.18;;
33094;SDS011;19459;53.044;8.910;2023-03-03T10:30:58;21.00;;;13.65;;
33094;SDS011;19459;53.044;8.910;2023-03-03T10:40:31;22.98;;;12.77;;
33094;SDS011;19459;53.044;8.910;2023-03-03T10:46:00;23.27;;;13.02;;
33094;SDS011;19459;53.044;8.910;2023-03-03T10:52:08;19.58;;;13.45;;
33094;SDS011;19459;53.044;8.910;2023-03-03T11:00:30;26.23;;;16.80;;
33094;SDS011;19459;53.044;8.910;2023-03-03T11:06:23;29.80;;;16.90;;
33094;SDS011;19459;53.044;8.910;2023-03-03T11:14:02;31.67;;;17.55;;
33094;SDS011;19459;53.044;8.910;2023-03-03T11:30:02;39.35;;;22.80;;
33094;SDS011;19459;53.044;8.910;2023-03-03T11:33:01;42.15;;;25.55;;
33094;SDS011;19459;53.044;8.910;2023-03-03T11:35:58;36.92;;;24.17;;
33094;SDS011;19459;53.044;8.910;2023-03-03T11:39:06;40.40;;;27.13;;
33094;SDS011;19459;53.044;8.910;2023-03-03T11:53:05;45.25;;;27.00;;
33094;SDS011;19459;53.044;8.910;2023-03-03T11:55:48;42.15;;;25.10;;
33094;SDS011;19459;53.044;8.910;2023-03-03T11:58:33;43.40;;;24.65;;
33094;SDS011;19459;53.044;8.910;2023-03-03T12:26:11;12.25;;;4.70;;
33094;SDS011;19459;53.044;8.910;2023-03-03T12:34:50;9.38;;;4.45;;
33094;SDS011;19459;53.044;8.910;2023-03-03T12:40:31;11.00;;;3.95;;
33094;SDS011;19459;53.044;8.910;2023-03-03T12:51:09;8.35;;;4.13;;
33094;SDS011;19459;53.044;8.910;2023-03-03T12:54:34;7.32;;;3.80;;
33094;SDS011;19459;53.044;8.910;2023-03-03T12:57:09;8.38;;;4.95;;
33094;SDS011;19459;53.044;8.910;2023-03-03T13:11:32;7.30;;;4.20;;
33094;SDS011;19459;53.044;8.910;2023-03-03T13:14:43;15.75;;;5.15;;
33094;SDS011;19459;53.044;8.910;2023-03-03T13:20:02;12.07;;;6.15;;
33094;SDS011;19459;53.044;8.910;2023-03-03T13:31:21;12.77;;;4.28;;
33094;SDS011;19459;53.044;8.910;2023-03-03T13:33:56;6.35;;;3.33;;
33094;SDS011;19459;53.044;8.910;2023-03-03T13:36:29;5.82;;;3.20;;
33094;SDS011;19459;53.044;8.910;2023-03-03T13:39:47;7.10;;;3.15;;
33094;SDS011;19459;53.044;8.910;2023-03-03T13:45:06;6.75;;;3.60;;
33094;SDS011;19459;53.044;8.910;2023-03-03T13:47:54;4.93;;;2.45;;
33094;SDS011;19459;53.044;8.910;2023-03-03T13:50:48;8.00;;;2.15;;
33094;SDS011;19459;53.044;8.910;2023-03-03T13:56:23;5.90;;;3.08;;
33094;SDS011;19459;53.044;8.910;2023-03-03T14:04:52;5.28;;;2.92;;
33094;SDS011;19459;53.044;8.910;2023-03-03T14:07:28;4.35;;;1.80;;
33094;SDS011;19459;53.044;8.910;2023-03-03T14:18:13;7.55;;;3.35;;
33094;SDS011;19459;53.044;8.910;2023-03-03T14:20:54;5.07;;;2.33;;
33094;SDS011;19459;53.044;8.910;2023-03-03T14:26:12;2.67;;;1.73;;
33094;SDS011;19459;53.044;8.910;2023-03-03T14:28:40;6.18;;;2.15;;
33094;SDS011;19459;53.044;8.910;2023-03-03T14:31:23;12.63;;;3.15;;
33094;SDS011;19459;53.044;8.910;2023-03-03T14:36:31;9.38;;;2.30;;
33094;SDS011;19459;53.044;8.910;2023-03-03T14:39:03;4.38;;;2.80;;
33094;SDS011;19459;53.044;8.910;2023-03-03T14:41:58;6.72;;;2.42;;
33094;SDS011;19459;53.044;8.910;2023-03-03T14:44:27;6.82;;;2.30;;
33094;SDS011;19459;53.044;8.910;2023-03-03T14:47:10;7.13;;;3.67;;
33094;SDS011;19459;53.044;8.910;2023-03-03T14:49:50;9.18;;;4.30;;
33094;SDS011;19459;53.044;8.910;2023-03-03T14:52:29;9.93;;;3.47;;
33094;SDS011;19459;53.044;8.910;2023-03-03T14:54:58;7.88;;;3.33;;
33094;SDS011;19459;53.044;8.910;2023-03-03T15:02:42;6.88;;;2.78;;
33094;SDS011;19459;53.044;8.910;2023-03-03T15:05:25;6.68;;;3.28;;
33094;SDS011;19459;53.044;8.910;2023-03-03T15:10:32;6.60;;;3.40;;
33094;SDS011;19459;53.044;8.910;2023-03-03T15:21:58;7.60;;;4.20;;
33094;SDS011;19459;53.044;8.910;2023-03-03T15:27:23;24.98;;;11.88;;
33094;SDS011;19459;53.044;8.910;2023-03-03T15:30:04;12.63;;;6.68;;
33094;SDS011;19459;53.044;8.910;2023-03-03T15:38:41;9.25;;;5.50;;
33094;SDS011;19459;53.044;8.910;2023-03-03T15:41:43;7.10;;;3.92;;
33094;SDS011;19459;53.044;8.910;2023-03-03T15:53:15;10.07;;;3.92;;
33094;SDS011;19459;53.044;8.910;2023-03-03T16:10:49;11.18;;;4.93;;
33094;SDS011;19459;53.044;8.910;2023-03-03T16:14:06;10.60;;;4.22;;
33094;SDS011;19459;53.044;8.910;2023-03-03T16:17:11;11.25;;;5.70;;
33094;SDS011;19459;53.044;8.910;2023-03-03T16:22:54;8.98;;;5.00;;
33094;SDS011;19459;53.044;8.910;2023-03-03T16:26:30;10.85;;;4.72;;
33094;SDS011;19459;53.044;8.910;2023-03-03T16:31:42;10.02;;;4.80;;
33094;SDS011;19459;53.044;8.910;2023-03-03T16:43:19;7.22;;;3.17;;
33094;SDS011;19459;53.044;8.910;2023-03-03T16:46:12;6.53;;;3.22;;
33094;SDS011;19459;53.044;8.910;2023-03-03T16:51:45;6.53;;;2.58;;
33094;SDS011;19459;53.044;8.910;2023-03-03T16:57:33;7.07;;;4.05;;
33094;SDS011;19459;53.044;8.910;2023-03-03T17:00:49;9.25;;;3.78;;
33094;SDS011;19459;53.044;8.910;2023-03-03T17:06:35;14.43;;;7.60;;
33094;SDS011;19459;53.044;8.910;2023-03-03T17:14:43;12.45;;;5.80;;
33094;SDS011;19459;53.044;8.910;2023-03-03T17:20:10;10.68;;;3.63;;
33094;SDS011;19459;53.044;8.910;2023-03-03T17:32:04;12.32;;;4.90;;
33094;SDS011;19459;53.044;8.910;2023-03-03T17:40:07;17.13;;;2.70;;
33094;SDS011;19459;53.044;8.910;2023-03-03T17:43:09;15.80;;;5.00;;
33094;SDS011;19459;53.044;8.910;2023-03-03T17:45:44;18.00;;;3.63;;
33094;SDS011;19459;53.044;8.910;2023-03-03T18:17:13;19.20;;;4.50;;
33094;SDS011;19459;53.044;8.910;2023-03-03T18:22:48;24.35;;;4.60;;
33094;SDS011;19459;53.044;8.910;2023-03-03T18:25:50;20.67;;;6.72;;
33094;SDS011;19459;53.044;8.910;2023-03-03T18:28:20;24.20;;;4.93;;
33094;SDS011;19459;53.044;8.910;2023-03-03T18:30:55;29.40;;;5.43;;
33094;SDS011;19459;53.044;8.910;2023-03-03T18:41:27;33.60;;;6.72;;
33094;SDS011;19459;53.044;8.910;2023-03-03T18:44:39;25.17;;;4.93;;
33094;SDS011;19459;53.044;8.910;2023-03-03T18:47:05;21.15;;;4.35;;
33094;SDS011;19459;53.044;8.910;2023-03-03T18:53:12;30.15;;;6.22;;
33094;SDS011;19459;53.044;8.910;2023-03-03T18:55:57;27.73;;;5.63;;
33094;SDS011;19459;53.044;8.910;2023-03-03T19:04:02;22.35;;;5.97;;
33094;SDS011;19459;53.044;8.910;2023-03-03T19:09:17;22.60;;;5.22;;
33094;SDS011;19459;53.044;8.910;2023-03-03T19:15:41;30.50;;;6.55;;
33094;SDS011;19459;53.044;8.910;2023-03-03T19:20:49;25.10;;;5.80;;
33094;SDS011;19459;53.044;8.910;2023-03-03T19:41:02;26.63;;;6.53;;
33094;SDS011;19459;53.044;8.910;2023-03-03T19:43:49;28.42;;;6.68;;
33094;SDS011;19459;53.044;8.910;2023-03-03T19:46:52;30.85;;;5.50;;
33094;SDS011;19459;53.044;8.910;2023-03-03T20:06:40;27.05;;;6.32;;
33094;SDS011;19459;53.044;8.910;2023-03-03T20:15:14;28.55;;;5.68;;
33094;SDS011;19459;53.044;8.910;2023-03-03T20:17:54;29.85;;;5.85;;
33094;SDS011;19459;53.044;8.910;2023-03-03T20:23:22;41.78;;;7.93;;
33094;SDS011;19459;53.044;8.910;2023-03-03T20:26:25;31.03;;;7.53;;
33094;SDS011;19459;53.044;8.910;2023-03-03T20:40:34;26.98;;;6.47;;
33094;SDS011;19459;53.044;8.910;2023-03-03T20:55:33;30.50;;;7.38;;
33094;SDS011;19459;53.044;8.910;2023-03-03T21:06:00;35.85;;;6.70;;
33094;SDS011;19459;53.044;8.910;2023-03-03T21:08:43;30.52;;;6.55;;
33094;SDS011;19459;53.044;8.910;2023-03-03T21:11:52;29.48;;;5.82;;
33094;SDS011;19459;53.044;8.910;2023-03-03T21:14:25;34.08;;;5.93;;
33094;SDS011;19459;53.044;8.910;2023-03-03T21:16:54;42.60;;;6.45;;
33094;SDS011;19459;53.044;8.910;2023-03-03T21:19:33;30.30;;;6.60;;
33094;SDS011;19459;53.044;8.910;2023-03-03T21:22:02;25.70;;;6.25;;
33094;SDS011;19459;53.044;8.910;2023-03-03T21:24:49;26.70;;;5.72;;
33094;SDS011;19459;53.044;8.910;2023-03-03T21:27:32;29.45;;;5.60;;
33094;SDS011;19459;53.044;8.910;2023-03-03T21:30:11;24.33;;;5.13;;
33094;SDS011;19459;53.044;8.910;2023-03-03T21:35:11;32.28;;;6.55;;
33094;SDS011;19459;53.044;8.910;2023-03-03T21:38:01;21.98;;;6.25;;
33094;SDS011;19459;53.044;8.910;2023-03-03T21:40:27;27.83;;;5.97;;
33094;SDS011;19459;53.044;8.910;2023-03-03T21:42:57;46.17;;;6.97;;
33094;SDS011;19459;53.044;8.910;2023-03-03T21:45:24;29.33;;;6.68;;
33094;SDS011;19459;53.044;8.910;2023-03-03T21:47:51;30.20;;;5.82;;
33094;SDS011;19459;53.044;8.910;2023-03-03T21:50:19;40.63;;;5.68;;
33094;SDS011;19459;53.044;8.910;2023-03-03T21:52:45;27.67;;;5.15;;
33094;SDS011;19459;53.044;8.910;2023-03-03T21:55:12;26.40;;;5.85;;
33094;SDS011;19459;53.044;8.910;2023-03-03T21:57:37;32.53;;;7.07;;
33094;SDS011;19459;53.044;8.910;2023-03-03T22:00:04;25.00;;;6.25;;
33094;SDS011;19459;53.044;8.910;2023-03-03T22:02:35;46.67;;;6.55;;
33094;SDS011;19459;53.044;8.910;2023-03-03T22:05:01;32.35;;;7.20;;
33094;SDS011;19459;53.044;8.910;2023-03-03T22:07:27;34.13;;;5.57;;
33094;SDS011;19459;53.044;8.910;2023-03-03T22:09:53;34.95;;;6.47;;
33094;SDS011;19459;53.044;8.910;2023-03-03T22:12:19;27.92;;;7.13;;
33094;SDS011;19459;53.044;8.910;2023-03-03T22:14:45;32.15;;;6.35;;
33094;SDS011;19459;53.044;8.910;2023-03-03T22:17:11;24.38;;;5.45;;
33094;SDS011;19459;53.044;8.910;2023-03-03T22:19:36;33.90;;;5.90;;
33094;SDS011;19459;53.044;8.910;2023-03-03T22:22:02;34.03;;;4.95;;
33094;SDS011;19459;53.044;8.910;2023-03-03T22:24:29;28.23;;;4.95;;
33094;SDS011;19459;53.044;8.910;2023-03-03T22:26:55;26.85;;;6.57;;
33094;SDS011;19459;53.044;8.910;2023-03-03T22:29:21;24.25;;;5.00;;
33094;SDS011;19459;53.044;8.910;2023-03-03T22:31:50;36.78;;;7.30;;
33094;SDS011;19459;53.044;8.910;2023-03-03T22:34:16;37.40;;;6.03;;
33094;SDS011;19459;53.044;8.910;2023-03-03T22:36:42;30.85;;;6.43;;
33094;SDS011;19459;53.044;8.910;2023-03-03T22:39:07;24.13;;;6.38;;